Terminal Aerodrome Forecast
Issued by NWS Wilmington, OH

Current Version | Previous Version | Graphics & Text | Print | Product List | Glossary On
Versions: 1 2 3 4 5 6 7 8 9 10 11 12 13 14 15 16 17
285
FTUS41 KILN 212327
TAFILN
TAF
KILN 212327Z 2200/2224 21005KT P6SM VCTS BKN050CB
     FM220200 21004KT P6SM VCTS OVC050CB
      TEMPO 2202/2205 2SM -TSRA BR OVC025CB
     FM220700 22004KT P6SM VCSH BKN050
     FM220900 22004KT P6SM BKN080
     FM221500 23008KT P6SM VCSH BKN050=

USA.gov is the U.S. government's official web portal to all federal, state and local government web resources and services.